Oakland, Louisiana
Current Conditions -  °F | °C
As of 7:35 AM on Sunday 23 Nov 2014 (Local Time) from KBQP Reporting Station
Light Rain Light Rain  
Wind Chill: 60°   Ceiling: 400
Heat Index: 60°   Visibility: 5mi
Dew Point: 60°   Wind: 3mph
Humidity: 97%   Direction: 80°E
Pressure: 29.61"   Gusts: NA
Location:  32.906°N, 92.243°W
Report Text: KBQP 231335Z AUTO 08003KT 5SM -RA OVC004 16/15 A2961 RMK AO2 P0007 T01580154
Loading
Personal Weather Stations






























Interactive Weather Map New forecast layout! Learn more

10-Day Weather Forecast

Advertisements
Track Severe Weather on mobile